Time;durP1;ratioP1;P1;durP2;ratioP2;P2;SDS_P1;SDS_P2;PMS_P1;PMS_P2;Temp;Humidity;BMP_temperature;BMP_pressure;BME280_temperature;BME280_humidity;BME280_pressure;Samples;Min_cycle;Max_cycle;Signal;HPM_P1;HPM_P2
2021/03/22 00:02:06;;;;;;;21.38;9.38;;;5.50;66.80;;;;;;4974263;28;20046;-64
2021/03/22 00:04:34;;;;;;;30.33;10.63;;;5.50;66.80;;;;;;4977226;28;20089;-64
2021/03/22 00:07:03;;;;;;;23.75;9.93;;;5.50;66.80;;;;;;4976260;28;20031;-64
2021/03/22 00:09:31;;;;;;;28.77;10.98;;;5.50;66.80;;;;;;4977539;28;20682;-64
2021/03/22 00:11:56;;;;;;;21.17;10.15;;;5.50;66.80;;;;;;4968321;28;20039;-64
2021/03/22 00:14:24;;;;;;;25.80;11.00;;;5.60;66.80;;;;;;4974287;28;20457;-64
2021/03/22 00:16:54;;;;;;;33.13;11.18;;;5.50;66.80;;;;;;4978172;28;20043;-64
2021/03/22 00:19:20;;;;;;;26.50;11.73;;;5.50;67.00;;;;;;4976162;28;20038;-64
2021/03/22 00:21:46;;;;;;;29.75;11.38;;;5.50;66.70;;;;;;4974751;28;20037;-64
2021/03/22 00:24:18;;;;;;;34.85;11.80;;;5.50;66.80;;;;;;4974591;28;20042;-64
2021/03/22 00:26:46;;;;;;;28.92;10.93;;;5.50;67.00;;;;;;4973427;28;20046;-63
2021/03/22 00:29:14;;;;;;;31.38;11.10;;;5.50;67.00;;;;;;4973691;28;20034;-64
2021/03/22 00:31:40;;;;;;;27.50;11.13;;;5.40;67.00;;;;;;4972831;28;20035;-63
2021/03/22 00:34:05;;;;;;;30.48;11.75;;;5.40;67.00;;;;;;4975360;28;20071;-64
2021/03/22 00:36:31;;;;;;;25.83;11.20;;;5.50;67.10;;;;;;4974673;28;20428;-64
2021/03/22 00:38:59;;;;;;;25.25;11.38;;;5.40;67.20;;;;;;4974215;28;20490;-63
2021/03/22 00:41:24;;;;;;;30.80;10.95;;;5.50;67.20;;;;;;4973951;28;20034;-64
2021/03/22 00:43:50;;;;;;;31.63;10.98;;;5.40;67.00;;;;;;4973707;28;22432;-64
2021/03/22 00:46:16;;;;;;;28.90;10.82;;;5.40;67.00;;;;;;4976531;28;20035;-63
2021/03/22 00:48:42;;;;;;;22.15;10.52;;;5.40;67.10;;;;;;4974501;28;20089;-64
2021/03/22 00:51:10;;;;;;;26.15;10.55;;;5.40;67.00;;;;;;4974404;28;20498;-64
2021/03/22 00:53:36;;;;;;;23.65;10.15;;;5.40;67.00;;;;;;4974819;28;20422;-64
2021/03/22 00:56:03;;;;;;;28.95;10.77;;;5.40;67.00;;;;;;4975274;28;20066;-63
2021/03/22 00:58:31;;;;;;;25.33;10.43;;;5.40;67.00;;;;;;4972110;28;20682;-64
2021/03/22 01:01:01;;;;;;;25.23;9.65;;;5.40;67.10;;;;;;4973425;28;20035;-64
2021/03/22 01:03:30;;;;;;;22.85;9.32;;;5.40;67.10;;;;;;4967961;28;20031;-64
2021/03/22 01:05:59;;;;;;;22.23;9.43;;;5.40;67.20;;;;;;4970548;28;20039;-64
2021/03/22 01:08:28;;;;;;;25.80;9.93;;;5.40;67.10;;;;;;4967302;28;20047;-64
2021/03/22 01:10:57;;;;;;;24.25;9.82;;;5.40;67.10;;;;;;4966673;28;20501;-64
2021/03/22 01:13:34;;;;;;;27.90;9.55;;;5.40;67.10;;;;;;4978230;28;20387;-63
2021/03/22 01:16:02;;;;;;;25.08;9.55;;;5.40;67.10;;;;;;4975023;28;20044;-63
2021/03/22 01:18:35;;;;;;;26.58;9.27;;;5.40;66.80;;;;;;4973864;28;20054;-64
2021/03/22 01:21:32;;;;;;;25.60;9.90;;;5.40;66.90;;;;;;4975394;28;20568;-64
2021/03/22 01:23:59;;;;;;;31.25;10.15;;;5.40;67.00;;;;;;4952224;28;20027;-64
2021/03/22 01:26:32;;;;;;;31.60;11.32;;;5.40;66.80;;;;;;4974530;28;20043;-64
2021/03/22 01:29:09;;;;;;;33.33;9.80;;;5.40;66.90;;;;;;4972396;28;20031;-64
2021/03/22 01:31:37;;;;;;;30.83;9.75;;;5.40;66.90;;;;;;4974353;28;20035;-64
2021/03/22 01:34:05;;;;;;;31.83;10.23;;;5.40;66.90;;;;;;4975317;28;20565;-64
2021/03/22 01:36:35;;;;;;;31.80;9.95;;;5.30;67.00;;;;;;4973069;28;20571;-63
2021/03/22 01:39:15;;;;;;;28.40;9.50;;;5.30;67.00;;;;;;4974439;28;20057;-64
2021/03/22 01:42:02;;;;;;;26.63;10.45;;;5.30;67.00;;;;;;4975091;28;20041;-64
2021/03/22 01:44:38;;;;;;;29.30;10.07;;;5.30;67.10;;;;;;4972737;28;20056;-64
2021/03/22 01:47:13;;;;;;;28.25;9.70;;;5.30;67.00;;;;;;4976595;28;20031;-64
2021/03/22 01:49:53;;;;;;;25.10;9.45;;;5.30;67.20;;;;;;4979183;28;20101;-64
2021/03/22 01:52:23;;;;;;;25.45;9.60;;;5.30;67.10;;;;;;4992990;28;20510;-65
2021/03/22 01:54:53;;;;;;;27.02;9.60;;;5.30;67.00;;;;;;4977291;28;20035;-64
2021/03/22 01:57:24;;;;;;;26.75;9.15;;;5.30;67.20;;;;;;4977435;28;20095;-64
2021/03/22 01:59:53;;;;;;;31.63;9.95;;;5.30;67.20;;;;;;4978557;28;20853;-64
2021/03/22 02:02:20;;;;;;;26.77;9.13;;;5.20;68.00;;;;;;4969545;28;20038;-64
2021/03/22 02:04:46;;;;;;;24.80;9.13;;;5.20;67.00;;;;;;4963719;28;20121;-65
2021/03/22 02:07:17;;;;;;;26.83;9.85;;;5.20;67.00;;;;;;4974238;28;20129;-64
2021/03/22 02:09:45;;;;;;;24.48;9.30;;;5.20;67.00;;;;;;4979868;28;20125;-64
2021/03/22 02:12:21;;;;;;;26.15;8.25;;;5.20;67.00;;;;;;4972292;28;20062;-65
2021/03/22 02:14:48;;;;;;;30.55;9.32;;;5.10;67.20;;;;;;4974850;28;20082;-65
2021/03/22 02:17:43;;;;;;;24.35;8.32;;;5.10;67.00;;;;;;4974268;28;20046;-64
2021/03/22 02:20:14;;;;;;;25.10;9.52;;;5.10;67.20;;;;;;4977973;28;20185;-64
2021/03/22 02:23:08;;;;;;;24.42;9.38;;;5.10;67.00;;;;;;4976324;28;20027;-65
2021/03/22 02:25:40;;;;;;;28.20;9.55;;;5.10;67.20;;;;;;4978478;28;20038;-64
2021/03/22 02:28:33;;;;;;;31.92;10.07;;;5.10;67.00;;;;;;4974938;28;20551;-65
2021/03/22 02:31:40;;;;;;;28.85;9.52;;;5.00;67.00;;;;;;4972690;28;20042;-64
2021/03/22 02:34:10;;;;;;;22.52;7.93;;;5.00;67.20;;;;;;4979937;28;20046;-63
2021/03/22 02:37:17;;;;;;;26.70;8.00;;;5.00;67.00;;;;;;4978893;28;20038;-64
2021/03/22 02:39:56;;;;;;;25.63;8.43;;;4.90;67.40;;;;;;4953632;28;20042;-65
2021/03/22 02:42:25;;;;;;;28.40;8.80;;;5.00;67.30;;;;;;4973084;28;20086;-65
2021/03/22 02:44:55;;;;;;;25.83;8.40;;;4.90;67.20;;;;;;4978182;28;20034;-64
2021/03/22 02:47:30;;;;;;;24.50;7.70;;;4.90;67.20;;;;;;4977014;28;20042;-64
2021/03/22 02:49:59;;;;;;;26.48;8.68;;;4.90;67.30;;;;;;4980297;28;20121;-64
2021/03/22 02:52:34;;;;;;;24.00;7.78;;;4.90;67.20;;;;;;4974472;28;20035;-64
2021/03/22 02:55:10;;;;;;;24.40;7.55;;;4.90;67.30;;;;;;4979308;28;20041;-64
2021/03/22 02:57:57;;;;;;;24.88;7.65;;;4.90;67.30;;;;;;4971213;28;21106;-64
2021/03/22 03:00:28;;;;;;;27.77;7.68;;;4.90;67.40;;;;;;4974965;28;20094;-64
2021/03/22 03:02:59;;;;;;;24.25;7.68;;;4.90;67.30;;;;;;4974889;28;20043;-64
2021/03/22 03:05:29;;;;;;;28.15;7.38;;;4.90;67.20;;;;;;4964221;28;20394;-64
2021/03/22 03:08:07;;;;;;;17.83;7.38;;;4.90;67.20;;;;;;4976216;28;20070;-64
2021/03/22 03:10:33;;;;;;;19.95;7.35;;;4.90;67.10;;;;;;4956917;28;20062;-64
2021/03/22 03:13:01;;;;;;;22.13;8.63;;;5.00;67.20;;;;;;4973092;28;20367;-64
2021/03/22 03:15:27;;;;;;;24.83;7.78;;;5.00;67.20;;;;;;4979543;28;20391;-64
2021/03/22 03:17:52;;;;;;;19.98;7.13;;;5.00;67.20;;;;;;4977068;28;20035;-64
2021/03/22 03:20:28;;;;;;;25.58;7.43;;;5.00;67.20;;;;;;4978867;28;20494;-64
2021/03/22 03:22:55;;;;;;;23.00;7.72;;;5.00;67.10;;;;;;4979311;28;20037;-64
2021/03/22 03:25:22;;;;;;;25.70;7.40;;;5.00;66.80;;;;;;4976736;28;20049;-64
2021/03/22 03:27:50;;;;;;;22.77;7.22;;;5.00;66.80;;;;;;4971570;28;20502;-63
2021/03/22 03:30:20;;;;;;;25.35;7.10;;;5.00;66.60;;;;;;4975428;28;20406;-63
2021/03/22 03:32:46;;;;;;;21.77;7.22;;;4.90;66.50;;;;;;4977476;28;20675;-63
2021/03/22 03:35:13;;;;;;;29.92;8.02;;;4.90;66.70;;;;;;4978408;28;20035;-64
2021/03/22 03:37:39;;;;;;;27.55;7.63;;;4.90;66.70;;;;;;4979077;28;20065;-64
2021/03/22 03:40:16;;;;;;;31.50;7.03;;;4.80;66.60;;;;;;4978784;28;20038;-65
2021/03/22 03:42:44;;;;;;;27.92;6.97;;;4.80;66.70;;;;;;4977197;28;20042;-63
2021/03/22 03:45:14;;;;;;;27.08;6.80;;;4.70;66.60;;;;;;4972621;28;20043;-64
2021/03/22 03:47:41;;;;;;;21.92;6.25;;;4.70;66.70;;;;;;4978716;28;20061;-64
2021/03/22 03:50:12;;;;;;;21.58;6.43;;;4.70;66.80;;;;;;4975317;28;20026;-65
2021/03/22 03:52:38;;;;;;;21.60;6.30;;;4.70;66.90;;;;;;4971476;28;20038;-65
2021/03/22 03:55:05;;;;;;;23.42;6.10;;;4.60;66.90;;;;;;4978124;28;20503;-64
2021/03/22 03:57:34;;;;;;;22.35;6.45;;;4.60;67.00;;;;;;4973437;28;20127;-64
2021/03/22 03:59:59;;;;;;;22.00;6.45;;;4.60;67.00;;;;;;4974169;28;20122;-64
2021/03/22 04:02:25;;;;;;;18.38;5.85;;;4.60;67.00;;;;;;4973076;28;20138;-64
2021/03/22 04:04:51;;;;;;;19.85;5.90;;;4.60;67.00;;;;;;4977135;28;20049;-63
2021/03/22 04:07:16;;;;;;;22.10;6.00;;;4.60;66.90;;;;;;4977886;28;20429;-64
2021/03/22 04:09:42;;;;;;;21.88;5.97;;;4.50;66.90;;;;;;4977235;28;20042;-65
2021/03/22 04:12:13;;;;;;;23.95;5.97;;;4.50;67.00;;;;;;4969675;28;20609;-64
2021/03/22 04:14:38;;;;;;;25.50;6.05;;;4.50;67.00;;;;;;4972620;28;20034;-63
2021/03/22 04:17:04;;;;;;;24.48;6.10;;;4.60;67.00;;;;;;4976380;28;20460;-63
2021/03/22 04:19:30;;;;;;;23.63;5.75;;;4.50;66.80;;;;;;4974449;28;20034;-64
2021/03/22 04:22:00;;;;;;;27.40;6.15;;;4.50;66.80;;;;;;4975468;28;20401;-64
2021/03/22 04:24:26;;;;;;;21.35;5.35;;;4.50;66.80;;;;;;4977209;28;20692;-63
2021/03/22 04:26:54;;;;;;;28.17;5.75;;;4.50;66.80;;;;;;4978808;28;20041;-64
2021/03/22 04:29:20;;;;;;;21.05;5.05;;;4.40;66.80;;;;;;4973265;28;20581;-64
2021/03/22 04:31:45;;;;;;;25.45;6.10;;;4.40;66.80;;;;;;4975618;28;20121;-64
2021/03/22 04:34:15;;;;;;;22.65;5.55;;;4.40;67.00;;;;;;4977382;28;20153;-63
2021/03/22 04:36:41;;;;;;;17.60;5.55;;;4.40;66.80;;;;;;4971077;28;20552;-64
2021/03/22 04:39:08;;;;;;;22.50;5.78;;;4.40;66.80;;;;;;4966702;28;20035;-64
2021/03/22 04:41:35;;;;;;;25.77;5.30;;;4.40;66.80;;;;;;4964004;28;20032;-64
2021/03/22 04:44:01;;;;;;;23.38;5.28;;;4.40;66.80;;;;;;4965635;28;20125;-64
2021/03/22 04:46:29;;;;;;;16.77;5.03;;;4.40;67.00;;;;;;4966429;28;20034;-64
2021/03/22 04:48:55;;;;;;;27.88;5.40;;;4.40;66.90;;;;;;4966345;28;20458;-64
2021/03/22 04:51:21;;;;;;;21.50;5.82;;;4.40;66.80;;;;;;4963816;28;20042;-64
2021/03/22 04:53:49;;;;;;;20.45;5.75;;;4.40;66.80;;;;;;4965233;28;20037;-64
2021/03/22 04:56:14;;;;;;;20.48;5.38;;;4.40;66.80;;;;;;4965346;28;20039;-64
2021/03/22 04:58:42;;;;;;;26.50;5.60;;;4.40;66.80;;;;;;4968050;28;20392;-64
2021/03/22 05:01:08;;;;;;;25.35;6.30;;;4.40;66.80;;;;;;4979376;28;20506;-64
2021/03/22 05:03:34;;;;;;;20.58;5.72;;;4.40;66.80;;;;;;4968481;28;20030;-64
2021/03/22 05:06:01;;;;;;;26.98;5.05;;;4.30;66.80;;;;;;4961694;28;20062;-63
2021/03/22 05:08:27;;;;;;;21.42;5.30;;;4.40;66.90;;;;;;4969512;28;20046;-63
2021/03/22 05:10:59;;;;;;;16.60;5.10;;;4.30;66.80;;;;;;4965600;28;20409;-64
2021/03/22 05:13:25;;;;;;;17.88;4.95;;;4.30;66.90;;;;;;4973130;28;20043;-63
2021/03/22 05:15:52;;;;;;;20.83;5.57;;;4.30;67.00;;;;;;4974711;28;20049;-64
2021/03/22 05:18:21;;;;;;;19.38;6.03;;;4.30;67.00;;;;;;4977152;28;20066;-64
2021/03/22 05:20:55;;;;;;;19.33;5.78;;;4.30;67.20;;;;;;4977900;28;20039;-65
2021/03/22 05:23:22;;;;;;;;;;;4.40;67.20;;;;;;4978342;28;20040;-64
2021/03/22 05:25:49;;;;;;;20.55;5.55;;;4.40;67.50;;;;;;4979158;28;20381;-64
2021/03/22 05:28:19;;;;;;;16.30;5.45;;;4.40;66.80;;;;;;4972334;28;20137;-64
2021/03/22 05:30:47;;;;;;;21.80;6.20;;;4.40;66.90;;;;;;4977120;28;20042;-64
2021/03/22 05:33:18;;;;;;;23.20;6.63;;;4.40;67.00;;;;;;4972163;28;20050;-63
2021/03/22 05:35:46;;;;;;;24.98;5.75;;;4.40;67.00;;;;;;4974655;28;20619;-64
2021/03/22 05:38:12;;;;;;;22.80;5.78;;;4.50;67.00;;;;;;4972086;28;20460;-64
2021/03/22 05:40:45;;;;;;;20.50;5.32;;;4.50;67.20;;;;;;4980209;28;20031;-64
2021/03/22 05:43:36;;;;;;;15.57;4.72;;;4.50;67.20;;;;;;4980998;28;20045;-64
2021/03/22 05:46:16;;;;;;;17.73;5.05;;;4.50;67.40;;;;;;4976742;28;20033;-64
2021/03/22 05:49:00;;;;;;;21.60;4.60;;;4.50;67.00;;;;;;4981032;28;20468;-62
2021/03/22 05:52:14;;;;;;;26.48;6.05;;;4.50;66.90;;;;;;4982170;28;20516;-64
2021/03/22 05:54:53;;;;;;;16.55;4.80;;;4.50;67.20;;;;;;4976188;28;20035;-64
2021/03/22 05:57:22;;;;;;;23.50;5.00;;;4.50;67.00;;;;;;4981007;28;20042;-64
2021/03/22 05:59:54;;;;;;;21.98;5.10;;;4.50;67.00;;;;;;4980037;28;20457;-65
2021/03/22 06:02:38;;;;;;;16.98;4.82;;;4.50;67.00;;;;;;4974905;28;20086;-64
2021/03/22 06:05:09;;;;;;;23.77;5.30;;;4.40;67.20;;;;;;4980601;28;20067;-64
2021/03/22 06:07:43;;;;;;;18.80;4.38;;;4.40;67.10;;;;;;4981184;28;20129;-65
2021/03/22 06:10:17;;;;;;;18.38;4.20;;;4.40;67.20;;;;;;4980754;28;20026;-64
2021/03/22 06:12:54;;;;;;;21.40;4.40;;;4.40;67.20;;;;;;4975886;28;20046;-64
2021/03/22 06:15:29;;;;;;;19.67;3.95;;;4.40;67.10;;;;;;4978880;28;20813;-64
2021/03/22 06:18:33;;;;;;;19.13;4.63;;;4.30;67.10;;;;;;4978456;28;20119;-64
2021/03/22 06:21:03;;;;;;;23.25;4.30;;;4.30;67.00;;;;;;4979672;28;20079;-64
2021/03/22 06:23:43;;;;;;;28.05;4.35;;;4.30;67.00;;;;;;4980272;28;20063;-64
2021/03/22 06:26:29;;;;;;;16.23;4.22;;;4.30;67.10;;;;;;4978881;28;20078;-63
2021/03/22 06:29:00;;;;;;;16.02;4.00;;;4.30;67.00;;;;;;4977685;28;20530;-64
2021/03/22 06:31:27;;;;;;;22.95;4.00;;;4.30;66.90;;;;;;4980201;28;20601;-64
2021/03/22 06:34:06;;;;;;;17.00;4.00;;;4.30;67.00;;;;;;4978212;28;20635;-63
2021/03/22 06:36:34;;;;;;;11.50;3.30;;;4.30;67.10;;;;;;4962054;28;20070;-64
2021/03/22 06:39:08;;;;;;;21.35;4.05;;;4.30;67.00;;;;;;4981441;28;20453;-65
2021/03/22 06:41:52;;;;;;;17.45;3.67;;;4.30;66.90;;;;;;4979249;28;20035;-64
2021/03/22 06:44:33;;;;;;;20.50;3.45;;;4.40;66.90;;;;;;4978597;28;20038;-64
2021/03/22 06:47:22;;;;;;;21.73;4.13;;;4.40;66.80;;;;;;4980385;28;20151;-63
2021/03/22 06:49:54;;;;;;;20.02;3.97;;;4.40;66.60;;;;;;4967934;28;20039;-64
2021/03/22 06:52:25;;;;;;;19.85;4.22;;;4.40;66.50;;;;;;4981305;28;20066;-64
2021/03/22 06:54:55;;;;;;;19.05;4.00;;;4.40;66.30;;;;;;4978664;28;20402;-64
2021/03/22 06:57:33;;;;;;;15.90;3.88;;;4.40;66.10;;;;;;4994329;28;20039;-64
2021/03/22 07:00:16;;;;;;;20.25;3.72;;;4.50;66.10;;;;;;4980993;28;20356;-64
2021/03/22 07:02:48;;;;;;;16.42;3.67;;;4.50;66.10;;;;;;4960180;28;20502;-64
2021/03/22 07:05:21;;;;;;;27.40;4.32;;;4.50;66.10;;;;;;4978891;28;20038;-64
2021/03/22 07:07:51;;;;;;;14.20;3.63;;;4.50;66.10;;;;;;4979812;28;20270;-64
2021/03/22 07:10:18;;;;;;;17.35;3.67;;;4.50;65.80;;;;;;4962088;28;20398;-64
2021/03/22 07:12:43;;;;;;;17.48;4.03;;;4.50;65.50;;;;;;4975751;28;20497;-65
2021/03/22 07:15:33;;;;;;;22.48;4.35;;;4.50;65.30;;;;;;4980369;28;20088;-64
2021/03/22 07:18:15;;;;;;;15.35;4.25;;;4.60;65.10;;;;;;4975274;28;20129;-64
2021/03/22 07:20:46;;;;;;;14.65;3.63;;;4.60;65.00;;;;;;4976471;28;20038;-65
2021/03/22 07:23:24;;;;;;;21.33;4.57;;;4.60;65.00;;;;;;4980304;28;20031;-65
2021/03/22 07:25:59;;;;;;;23.75;4.47;;;4.60;64.90;;;;;;4976973;28;20034;-64
2021/03/22 07:29:03;;;;;;;15.98;3.90;;;4.60;64.70;;;;;;4979452;28;20073;-65
2021/03/22 07:31:51;;;;;;;21.48;4.20;;;4.70;64.80;;;;;;4918137;29;20508;-64
2021/03/22 07:34:19;;;;;;;19.25;4.28;;;4.70;64.90;;;;;;4905712;29;20047;-65
2021/03/22 07:37:13;;;;;;;19.02;3.08;;;4.70;64.90;;;;;;4955763;28;20046;-65
2021/03/22 07:39:52;;;;;;;13.88;3.35;;;4.70;64.40;;;;;;4980090;28;20038;-64
2021/03/22 07:42:39;;;;;;;21.17;3.85;;;4.80;64.50;;;;;;4978708;28;20516;-63
2021/03/22 07:45:38;;;;;;;15.52;3.45;;;4.80;65.20;;;;;;4979992;28;20035;-64
2021/03/22 07:48:21;;;;;;;20.55;4.40;;;4.80;64.00;;;;;;4962674;28;20031;-65
2021/03/22 07:50:51;;;;;;;15.23;3.72;;;4.80;64.20;;;;;;4979773;28;20062;-64
2021/03/22 07:53:27;;;;;;;23.35;4.47;;;4.80;64.40;;;;;;4979220;28;20541;-64
2021/03/22 07:56:00;;;;;;;17.13;3.92;;;4.80;64.20;;;;;;4978454;28;20043;-65
2021/03/22 07:58:38;;;;;;;22.75;4.57;;;4.80;64.20;;;;;;4978123;28;20041;-65
2021/03/22 08:01:15;;;;;;;19.42;4.10;;;4.80;64.30;;;;;;4973716;28;20077;-63
2021/03/22 08:04:18;;;;;;;17.15;3.88;;;4.80;64.40;;;;;;4967642;28;20482;-64
2021/03/22 08:07:00;;;;;;;21.92;4.22;;;4.80;64.50;;;;;;4975875;28;20113;-64
2021/03/22 08:09:38;;;;;;;18.30;4.68;;;4.80;64.00;;;;;;4978836;28;20113;-64
2021/03/22 08:12:27;;;;;;;23.38;4.40;;;4.80;64.20;;;;;;4973660;28;20065;-65
2021/03/22 08:15:02;;;;;;;20.63;4.93;;;4.80;64.40;;;;;;4976158;28;20031;-65
2021/03/22 08:17:53;;;;;;;18.63;4.55;;;4.80;64.40;;;;;;4978557;28;20046;-64
2021/03/22 08:20:23;;;;;;;21.65;3.88;;;4.80;64.30;;;;;;4975679;28;20042;-64
2021/03/22 08:23:18;;;;;;;16.70;4.70;;;4.80;64.20;;;;;;4977302;28;20027;-64
2021/03/22 08:25:52;;;;;;;20.90;4.35;;;4.80;64.30;;;;;;4976427;28;20414;-64
2021/03/22 08:28:31;;;;;;;19.35;3.80;;;4.80;64.30;;;;;;4977215;28;20068;-64
2021/03/22 08:31:17;;;;;;;16.77;4.57;;;4.80;64.40;;;;;;4975091;28;21349;-64
2021/03/22 08:34:04;;;;;;;20.52;4.32;;;4.80;64.20;;;;;;4979173;28;20041;-64
2021/03/22 08:37:03;;;;;;;19.48;4.63;;;4.80;64.20;;;;;;4976580;28;20038;-64
2021/03/22 08:40:04;;;;;;;17.27;5.22;;;4.80;64.30;;;;;;4956174;28;20038;-64
2021/03/22 08:42:42;;;;;;;17.42;5.22;;;4.80;63.90;;;;;;4978744;28;20034;-65
2021/03/22 08:45:32;;;;;;;21.38;3.97;;;4.80;64.20;;;;;;4978546;28;20061;-64
2021/03/22 08:48:04;;;;;;;24.10;4.93;;;4.90;63.60;;;;;;4977051;28;20042;-65
2021/03/22 08:50:33;;;;;;;18.33;4.63;;;4.90;63.20;;;;;;4978307;28;20379;-64
2021/03/22 08:53:12;;;;;;;13.93;3.53;;;4.90;63.30;;;;;;4976925;28;20041;-64
2021/03/22 08:56:01;;;;;;;18.80;4.18;;;4.90;63.30;;;;;;4976785;28;20121;-64
2021/03/22 08:58:44;;;;;;;25.38;4.13;;;4.90;63.50;;;;;;4975851;28;20030;-64
2021/03/22 09:01:40;;;;;;;15.98;3.35;;;4.90;63.80;;;;;;4976428;28;20023;-64
2021/03/22 09:04:29;;;;;;;17.35;3.40;;;4.90;63.40;;;;;;4976909;28;20049;-64
2021/03/22 09:07:03;;;;;;;15.88;3.70;;;5.00;63.40;;;;;;4977450;28;20111;-63
2021/03/22 09:09:33;;;;;;;19.00;4.60;;;5.00;63.20;;;;;;4979120;28;20033;-64
2021/03/22 09:12:07;;;;;;;13.45;3.97;;;5.00;63.20;;;;;;4973053;28;20039;-64
2021/03/22 09:14:42;;;;;;;13.85;3.20;;;5.10;63.10;;;;;;4975213;28;20033;-64
2021/03/22 09:17:35;;;;;;;14.02;3.13;;;5.00;63.20;;;;;;4974334;28;20042;-64
2021/03/22 09:20:32;;;;;;;12.27;2.97;;;5.00;62.30;;;;;;4977294;28;20217;-64
2021/03/22 09:23:05;;;;;;;19.58;4.28;;;5.10;61.80;;;;;;4965512;28;20489;-63
2021/03/22 09:25:46;;;;;;;13.68;3.75;;;5.10;62.70;;;;;;4978567;28;20031;-64
2021/03/22 09:28:37;;;;;;;12.60;2.95;;;5.10;62.90;;;;;;4974757;28;20069;-64
2021/03/22 09:31:12;;;;;;;12.57;3.10;;;5.10;62.00;;;;;;4974008;28;20039;-64
2021/03/22 09:34:00;;;;;;;13.55;2.85;;;5.10;62.40;;;;;;4978352;28;20054;-64
2021/03/22 09:36:40;;;;;;;12.70;3.50;;;5.20;62.50;;;;;;4977277;28;20514;-63
2021/03/22 09:39:18;;;;;;;14.43;3.42;;;5.20;62.60;;;;;;4977677;28;20027;-63
2021/03/22 09:41:58;;;;;;;16.52;3.35;;;5.20;62.20;;;;;;4976856;28;20028;-64
2021/03/22 09:44:29;;;;;;;13.38;3.08;;;5.20;62.30;;;;;;4976211;28;20035;-64
2021/03/22 09:47:19;;;;;;;12.70;3.20;;;5.20;62.60;;;;;;4977847;28;20042;-65
2021/03/22 09:50:05;;;;;;;15.27;3.00;;;5.20;62.80;;;;;;4978424;28;20081;-64
2021/03/22 09:52:59;;;;;;;18.25;3.22;;;5.20;62.50;;;;;;4975494;28;20130;-64
2021/03/22 09:55:28;;;;;;;9.13;2.30;;;5.20;62.50;;;;;;4958942;28;20035;-64
2021/03/22 09:57:57;;;;;;;13.55;2.80;;;5.20;61.80;;;;;;4972931;28;20729;-65
2021/03/22 10:00:49;;;;;;;11.32;2.72;;;5.20;62.00;;;;;;4975424;28;20573;-65
2021/03/22 10:03:29;;;;;;;13.43;2.65;;;5.20;62.30;;;;;;4972861;28;20075;-64
2021/03/22 10:05:59;;;;;;;11.88;2.60;;;5.20;62.40;;;;;;4975996;28;20050;-64
2021/03/22 10:08:35;;;;;;;14.82;2.67;;;5.30;62.60;;;;;;4979347;28;20038;-64
2021/03/22 10:11:25;;;;;;;12.68;2.40;;;5.30;62.10;;;;;;4973542;28;20042;-64
2021/03/22 10:14:03;;;;;;;10.82;2.15;;;5.40;62.00;;;;;;4979581;28;20031;-64
2021/03/22 10:16:38;;;;;;;9.13;2.30;;;5.40;61.50;;;;;;4979826;28;20043;-64
2021/03/22 10:19:21;;;;;;;7.25;2.80;;;5.50;61.30;;;;;;4963679;28;20026;-65
2021/03/22 10:22:03;;;;;;;10.60;2.17;;;5.50;60.40;;;;;;4979776;28;20027;-64
2021/03/22 10:24:57;;;;;;;8.35;2.45;;;5.50;60.10;;;;;;4981517;28;20059;-64
2021/03/22 10:27:26;;;;;;;12.27;2.38;;;5.50;60.20;;;;;;4973415;28;20038;-64
2021/03/22 10:30:15;;;;;;;8.88;3.08;;;5.60;60.00;;;;;;4980481;28;20066;-64
2021/03/22 10:33:01;;;;;;;9.10;2.30;;;5.60;60.50;;;;;;4976575;28;20089;-65
2021/03/22 10:35:39;;;;;;;6.75;2.38;;;5.60;59.80;;;;;;4978246;28;20089;-65
2021/03/22 10:38:05;;;;;;;13.90;2.40;;;5.60;59.40;;;;;;4981061;28;20038;-65
2021/03/22 10:40:36;;;;;;;4.18;1.65;;;5.60;59.60;;;;;;4980486;28;20471;-64
2021/03/22 10:43:05;;;;;;;9.38;1.77;;;5.60;59.40;;;;;;4978542;28;20046;-65
2021/03/22 10:45:38;;;;;;;6.32;1.67;;;5.60;59.50;;;;;;4975896;28;20548;-65
2021/03/22 10:48:30;;;;;;;5.63;1.67;;;5.50;59.50;;;;;;4963990;28;20068;-65
2021/03/22 10:51:15;;;;;;;5.93;1.73;;;5.60;59.70;;;;;;4979457;28;20030;-64
2021/03/22 10:53:58;;;;;;;9.43;1.80;;;5.60;59.80;;;;;;4981007;28;20593;-65
2021/03/22 10:56:29;;;;;;;8.20;2.00;;;5.60;59.90;;;;;;4979386;28;20039;-64
2021/03/22 10:58:58;;;;;;;7.47;1.40;;;5.70;60.00;;;;;;4978582;28;20038;-64
2021/03/22 11:01:31;;;;;;;6.88;1.50;;;5.70;59.80;;;;;;4978313;28;20031;-64
2021/03/22 11:04:17;;;;;;;6.68;1.30;;;5.80;59.70;;;;;;4980688;28;20126;-64
2021/03/22 11:06:46;;;;;;;5.30;1.52;;;5.90;59.90;;;;;;4974929;28;20034;-64
2021/03/22 11:09:30;;;;;;;5.03;1.50;;;5.90;58.80;;;;;;4978735;28;20116;-65
2021/03/22 11:11:58;;;;;;;5.55;1.70;;;6.00;58.90;;;;;;4975371;28;20038;-64
2021/03/22 11:14:27;;;;;;;10.30;1.60;;;6.00;59.10;;;;;;4994482;28;20405;-64
2021/03/22 11:16:59;;;;;;;6.97;1.80;;;6.00;59.10;;;;;;4977095;28;20040;-64
2021/03/22 11:19:34;;;;;;;9.45;2.00;;;6.00;59.00;;;;;;4978588;28;20446;-64
2021/03/22 11:22:03;;;;;;;5.70;1.85;;;6.00;58.90;;;;;;4963874;28;20517;-64
2021/03/22 11:24:38;;;;;;;10.05;2.00;;;6.10;58.60;;;;;;4986260;28;20034;-64
2021/03/22 11:27:05;;;;;;;3.70;1.40;;;6.10;58.90;;;;;;4977624;28;20034;-65
2021/03/22 11:29:36;;;;;;;6.22;1.70;;;6.10;58.90;;;;;;4979796;28;20410;-64
2021/03/22 11:32:05;;;;;;;2.50;1.23;;;6.10;58.60;;;;;;4976487;28;20585;-64
2021/03/22 11:34:41;;;;;;;4.30;1.20;;;6.10;58.50;;;;;;4977640;28;20042;-64
2021/03/22 11:37:21;;;;;;;5.55;1.42;;;6.10;58.70;;;;;;4979832;28;20121;-65
2021/03/22 11:39:59;;;;;;;5.13;1.20;;;6.10;58.50;;;;;;4979324;28;20580;-64
2021/03/22 11:42:35;;;;;;;7.93;1.52;;;6.10;58.80;;;;;;4979005;28;20042;-63
2021/03/22 11:45:22;;;;;;;4.20;1.13;;;6.20;58.70;;;;;;4977988;28;20030;-63
2021/03/22 11:47:52;;;;;;;5.32;1.33;;;6.20;59.00;;;;;;4978295;28;20506;-64
2021/03/22 11:50:21;;;;;;;7.78;1.50;;;6.30;59.20;;;;;;4979708;28;20042;-65
2021/03/22 11:53:01;;;;;;;4.15;1.40;;;6.30;59.30;;;;;;4977246;28;20057;-64
2021/03/22 11:55:40;;;;;;;8.32;1.70;;;6.40;59.20;;;;;;4977802;28;20514;-65
2021/03/22 11:58:23;;;;;;;3.90;1.40;;;6.40;58.20;;;;;;4977207;28;20203;-63
2021/03/22 12:00:52;;;;;;;5.13;1.60;;;6.40;58.00;;;;;;4975292;28;20387;-64
2021/03/22 12:03:28;;;;;;;5.30;1.58;;;6.40;58.30;;;;;;4974860;28;20042;-64
2021/03/22 12:06:09;;;;;;;4.28;1.55;;;6.40;58.10;;;;;;4978215;28;20046;-65
2021/03/22 12:08:47;;;;;;;7.72;1.45;;;6.40;57.90;;;;;;4976155;28;20038;-64
2021/03/22 12:11:25;;;;;;;4.68;1.33;;;6.40;58.10;;;;;;4973756;28;20278;-64
2021/03/22 12:13:55;;;;;;;7.47;1.70;;;6.30;58.00;;;;;;4978382;28;20110;-64
2021/03/22 12:16:34;;;;;;;14.88;1.80;;;6.30;58.50;;;;;;4971938;28;20034;-64
2021/03/22 12:19:09;;;;;;;7.15;1.52;;;6.30;58.30;;;;;;4977508;28;20379;-64
2021/03/22 12:21:40;;;;;;;3.28;1.50;;;6.30;58.60;;;;;;4979575;28;20249;-65
2021/03/22 12:24:08;;;;;;;5.38;1.45;;;6.30;58.60;;;;;;4978510;28;20027;-64
2021/03/22 12:26:36;;;;;;;6.90;1.33;;;6.40;58.50;;;;;;4976587;28;20047;-63
2021/03/22 12:29:04;;;;;;;5.60;1.60;;;6.50;58.50;;;;;;4979051;28;20038;-64
2021/03/22 12:31:34;;;;;;;13.30;2.17;;;6.50;58.50;;;;;;4978829;28;20034;-65
2021/03/22 12:34:04;;;;;;;5.93;1.80;;;6.50;58.50;;;;;;4973466;28;20092;-66
2021/03/22 12:36:31;;;;;;;4.53;1.42;;;6.60;58.50;;;;;;4977910;28;20039;-64
2021/03/22 12:38:59;;;;;;;4.45;1.85;;;6.60;58.40;;;;;;4976745;28;20042;-65
2021/03/22 12:41:30;;;;;;;5.22;2.10;;;6.60;58.20;;;;;;4978670;28;20034;-64
2021/03/22 12:44:00;;;;;;;10.32;2.22;;;6.70;58.40;;;;;;4976600;28;20035;-64
2021/03/22 12:46:28;;;;;;;7.72;2.40;;;6.70;58.50;;;;;;4977874;28;20238;-64
2021/03/22 12:48:56;;;;;;;6.25;2.45;;;6.70;58.10;;;;;;4978272;28;20034;-64
2021/03/22 12:51:24;;;;;;;6.00;1.90;;;6.80;58.00;;;;;;4975702;28;20126;-64
2021/03/22 12:53:50;;;;;;;8.77;2.05;;;6.70;57.80;;;;;;4977778;28;20042;-64
2021/03/22 12:56:24;;;;;;;7.47;2.00;;;6.70;57.50;;;;;;4977198;28;20556;-64
2021/03/22 12:58:52;;;;;;;3.00;1.50;;;6.70;57.70;;;;;;4976207;28;20031;-64
2021/03/22 13:01:18;;;;;;;5.72;1.55;;;6.70;58.10;;;;;;4975689;28;20027;-64
2021/03/22 13:03:43;;;;;;;6.38;1.77;;;6.70;58.20;;;;;;4976403;28;20497;-64
2021/03/22 13:06:09;;;;;;;4.47;1.50;;;6.70;58.00;;;;;;4975935;28;20026;-65
2021/03/22 13:08:37;;;;;;;7.15;1.55;;;6.60;58.10;;;;;;4977260;28;20050;-64
2021/03/22 13:11:06;;;;;;;5.50;1.40;;;6.70;58.20;;;;;;4972957;28;20100;-64
2021/03/22 13:13:34;;;;;;;5.97;1.73;;;6.60;58.20;;;;;;4977832;28;20071;-65
2021/03/22 13:16:00;;;;;;;4.20;1.90;;;6.70;58.20;;;;;;4977419;28;20031;-63
2021/03/22 13:18:29;;;;;;;6.25;2.13;;;6.60;58.00;;;;;;4978288;28;20042;-64
2021/03/22 13:21:01;;;;;;;7.18;2.42;;;6.60;57.90;;;;;;4974154;28;20514;-64
2021/03/22 13:23:29;;;;;;;6.13;1.98;;;6.60;57.90;;;;;;4978659;28;20050;-64
2021/03/22 13:25:56;;;;;;;8.40;2.60;;;6.60;58.00;;;;;;4978538;28;20165;-64